Anacortes, Washington
Current Conditions -  °F | °C
As of 2:15 AM on Monday 26 Jan 2015 (Local Time) from KBVS Reporting Station
Overcast Overcast  
Wind Chill: 44°   Ceiling: 100
Heat Index: 46°   Visibility: 0.25mi
Dew Point: 46°   Wind: 5mph
Humidity: 100%   Direction: 320°NW
Pressure: 29.96"   Gusts: NA
Location:  48.51°N, 122.61°W
Report Text: KBVS 261015Z AUTO 32004KT 1/4SM OVC001 08/08 A2996 RMK A01 P000
Loading
Personal Weather Stations






























Interactive Weather Map New forecast layout! Learn more

10-Day Weather Forecast

Advertisements
Track Severe Weather on mobile